Time;durP1;ratioP1;P1;durP2;ratioP2;P2;SDS_P1;SDS_P2;PMS_P1;PMS_P2;Temp;Humidity;BMP_temperature;BMP_pressure;BME280_temperature;BME280_humidity;BME280_pressure;Samples;Min_cycle;Max_cycle;Signal;HPM_P1;HPM_P2
2023/12/01 00:00:53;;;;;;;1.40;1.27;;;;;;;0.50;100.00;100580.56;5097713;27;96521;-27
2023/12/01 00:03:19;;;;;;;1.27;1.15;;;;;;;0.52;100.00;100584.94;5097560;27;96885;-28
2023/12/01 00:05:44;;;;;;;2.67;1.63;;;;;;;0.55;100.00;100584.88;5097577;27;101347;-28
2023/12/01 00:08:09;;;;;;;1.67;1.58;;;;;;;0.57;100.00;100590.16;5097776;27;97772;-27
2023/12/01 00:10:35;;;;;;;2.78;2.58;;;;;;;0.58;100.00;100595.44;5098190;27;96668;-27
2023/12/01 00:13:00;;;;;;;4.10;2.80;;;;;;;0.50;100.00;100589.44;5097272;27;96844;-27
2023/12/01 00:15:25;;;;;;;1.42;1.33;;;;;;;0.50;100.00;100591.22;5097536;27;97417;-27
2023/12/01 00:17:50;;;;;;;3.85;3.40;;;;;;;0.48;100.00;100601.03;5098058;27;98266;-27
2023/12/01 00:20:16;;;;;;;1.25;1.15;;;;;;;0.49;100.00;100600.13;5097357;27;96611;-27
2023/12/01 00:22:42;;;;;;;4.75;2.58;;;;;;;0.51;100.00;100599.19;5097494;27;96708;-28
2023/12/01 00:25:07;;;;;;;1.63;1.52;;;;;;;0.46;100.00;100593.09;5078349;27;100946;-27
2023/12/01 00:27:33;;;;;;;3.20;2.78;;;;;;;0.47;100.00;100599.28;5097217;27;99566;-26
2023/12/01 00:29:58;;;;;;;3.15;2.13;;;;;;;0.38;100.00;100595.94;5097414;27;96722;-27
2023/12/01 00:32:23;;;;;;;2.25;1.77;;;;;;;0.45;100.00;100601.13;5097533;27;96872;-27
2023/12/01 00:34:49;;;;;;;1.70;1.20;;;;;;;0.46;100.00;100614.41;5097268;27;98359;-27
2023/12/01 00:37:16;;;;;;;5.03;2.58;;;;;;;0.41;100.00;100621.66;5078480;27;100592;-27
2023/12/01 00:39:42;;;;;;;2.75;1.48;;;;;;;0.38;100.00;100613.69;5078929;27;96654;-27
2023/12/01 00:42:07;;;;;;;2.42;1.77;;;;;;;0.38;100.00;100627.91;5097675;27;96824;-27
2023/12/01 00:44:32;;;;;;;2.53;1.58;;;;;;;0.44;100.00;100626.88;5097093;27;97929;-27
2023/12/01 00:46:58;;;;;;;1.88;1.60;;;;;;;0.42;100.00;100634.91;5097341;27;97741;-27
2023/12/01 00:49:23;;;;;;;4.95;2.97;;;;;;;0.44;100.00;100631.34;5096425;27;96640;-28
2023/12/01 00:51:48;;;;;;;6.18;3.20;;;;;;;0.43;100.00;100630.47;5096373;27;96928;-27
2023/12/01 00:54:13;;;;;;;3.85;2.40;;;;;;;0.45;100.00;100630.41;5096692;27;103235;-27
2023/12/01 00:56:39;;;;;;;5.47;4.00;;;;;;;0.39;100.00;100635.00;5096839;27;100663;-27
2023/12/01 00:59:04;;;;;;;5.03;3.47;;;;;;;0.39;100.00;100644.78;5097392;27;96803;-27
2023/12/01 01:01:30;;;;;;;4.72;3.13;;;;;;;0.39;100.00;100650.97;5097052;27;96945;-27
2023/12/01 01:03:57;;;;;;;2.65;1.92;;;;;;;0.32;100.00;100643.16;5096803;27;98002;-27
2023/12/01 01:06:22;;;;;;;2.60;2.40;;;;;;;0.23;100.00;100638.03;5097231;27;97781;-27
2023/12/01 01:08:48;;;;;;;4.75;2.95;;;;;;;0.23;100.00;100636.25;5097068;27;96807;-27
2023/12/01 01:11:13;;;;;;;2.05;1.88;;;;;;;0.26;100.00;100646.81;5096990;27;96912;-27
2023/12/01 01:13:38;;;;;;;2.72;2.35;;;;;;;0.28;100.00;100655.66;5096169;27;97941;-27
2023/12/01 01:16:04;;;;;;;2.00;1.35;;;;;;;0.28;100.00;100666.31;5096251;27;99291;-27
2023/12/01 01:18:29;;;;;;;2.50;2.28;;;;;;;0.26;100.00;100667.25;5096811;27;96642;-27
2023/12/01 01:20:54;;;;;;;2.55;2.30;;;;;;;0.24;100.00;100662.00;5096636;27;96819;-27
2023/12/01 01:23:20;;;;;;;4.28;3.85;;;;;;;0.20;100.00;100662.94;5096095;27;98967;-27
2023/12/01 01:25:45;;;;;;;4.97;3.35;;;;;;;0.15;100.00;100664.84;5095781;27;97793;-27
2023/12/01 01:28:11;;;;;;;3.35;2.63;;;;;;;0.09;100.00;100665.84;5096789;27;96586;-27
2023/12/01 01:30:37;;;;;;;2.40;1.98;;;;;;;0.10;100.00;100669.41;5096916;27;96861;-27
2023/12/01 01:33:02;;;;;;;0.80;0.65;;;;;;;0.15;100.00;100686.16;5096058;27;98098;-27
2023/12/01 01:35:29;;;;;;;4.38;2.63;;;;;;;0.09;100.00;100688.94;5096266;27;97840;-27
2023/12/01 01:37:54;;;;;;;4.57;2.50;;;;;;;-0.04;100.00;100678.53;5077331;27;96781;-28
2023/12/01 01:40:20;;;;;;;2.92;1.50;;;;;;;-0.04;100.00;100683.00;5096366;27;96963;-28
2023/12/01 01:42:45;;;;;;;3.00;2.72;;;;;;;-0.07;100.00;100678.63;5096037;27;99456;-27
2023/12/01 01:45:10;;;;;;;7.00;3.08;;;;;;;-0.05;100.00;100692.78;5095943;27;99509;-27
2023/12/01 01:47:36;;;;;;;0.98;0.95;;;;;;;-0.01;100.00;100689.13;5077605;27;96704;-28
2023/12/01 01:50:03;;;;;;;2.90;1.95;;;;;;;0.01;100.00;100694.44;5077538;27;96825;-27
2023/12/01 01:52:29;;;;;;;4.40;2.10;;;;;;;-0.08;100.00;100708.78;5111612;27;101046;-27
2023/12/01 01:54:55;;;;;;;2.95;1.80;;;;;;;-0.10;100.00;100705.28;5096720;27;97311;-27
2023/12/01 01:57:20;;;;;;;2.22;2.05;;;;;;;-0.17;100.00;100703.66;5077696;27;96738;-27
2023/12/01 01:59:45;;;;;;;1.65;0.38;;;;;;;-0.16;100.00;100702.75;5096362;27;96873;-26
2023/12/01 02:02:11;;;;;;;1.10;1.02;;;;;;;-0.19;100.00;100699.25;5095360;27;97177;-27
2023/12/01 02:04:36;;;;;;;1.02;1.00;;;;;;;-0.07;100.00;100707.91;5096255;27;97070;-28
2023/12/01 02:07:02;;;;;;;1.98;1.55;;;;;;;-0.11;100.00;100695.56;5096285;27;96484;-28
2023/12/01 02:09:32;;;;;;;2.35;1.45;;;;;;;-0.14;100.00;100703.59;5096216;27;96762;-27
2023/12/01 02:11:57;;;;;;;1.63;1.20;;;;;;;-0.16;100.00;100700.09;5111623;27;100919;-27
2023/12/01 02:14:23;;;;;;;1.60;1.50;;;;;;;-0.17;100.00;100708.97;5095674;27;99043;-27
2023/12/01 02:16:49;;;;;;;2.72;1.52;;;;;;;-0.25;100.00;100702.94;5095757;27;96784;-27
2023/12/01 02:19:15;;;;;;;0.82;0.55;;;;;;;-0.31;100.00;100711.03;5077438;27;96900;-27
2023/12/01 02:21:47;;;;;;;0.43;0.43;;;;;;;-0.35;100.00;100704.91;5077448;27;97968;-27
2023/12/01 02:24:13;;;;;;;2.60;1.90;;;;;;;-0.38;100.00;100704.06;5076979;27;98986;-27
2023/12/01 02:26:39;;;;;;;1.52;1.42;;;;;;;-0.43;100.00;100702.38;5095343;27;96637;-27
2023/12/01 02:29:05;;;;;;;1.83;1.70;;;;;;;-0.37;100.00;100712.03;5095877;27;96776;-27
2023/12/01 02:31:31;;;;;;;1.80;1.65;;;;;;;-0.44;100.00;100699.75;5076764;27;101139;-27
2023/12/01 02:33:57;;;;;;;2.42;1.50;;;;;;;-0.43;100.00;100710.38;5095563;27;97334;-27
2023/12/01 02:36:22;;;;;;;1.27;1.23;;;;;;;-0.40;100.00;100705.91;5098025;27;96648;-27
2023/12/01 02:38:48;;;;;;;1.95;1.77;;;;;;;-0.37;100.00;100704.03;5080780;27;96822;-27
2023/12/01 02:41:15;;;;;;;3.08;2.00;;;;;;;-0.40;100.00;100708.56;5098951;27;99234;-27
2023/12/01 02:43:41;;;;;;;1.80;1.38;;;;;;;-0.46;100.00;100702.41;5080693;27;100863;-27
2023/12/01 02:46:06;;;;;;;0.47;0.47;;;;;;;-0.52;100.00;100707.88;5099143;27;96642;-28
2023/12/01 02:48:31;;;;;;;0.63;0.57;;;;;;;-0.55;100.00;100699.97;5099190;27;96859;-27
2023/12/01 02:50:57;;;;;;;4.60;2.38;;;;;;;-0.52;100.00;100718.50;5097897;27;97534;-27
2023/12/01 02:53:23;;;;;;;1.63;1.52;;;;;;;-0.56;100.00;100711.50;5098801;27;104272;-27
2023/12/01 02:55:49;;;;;;;0.65;0.65;;;;;;;-0.53;100.00;100711.41;5099204;27;96576;-27
2023/12/01 02:58:14;;;;;;;2.05;1.52;;;;;;;-0.48;100.00;100709.59;5098960;27;96841;-27
2023/12/01 03:00:42;;;;;;;1.13;0.88;;;;;;;-0.44;100.00;100699.75;5098471;27;99195;-27
2023/12/01 03:03:08;;;;;;;2.80;1.33;;;;;;;-0.40;100.00;100703.25;5098585;27;98736;-27
2023/12/01 03:05:33;;;;;;;0.45;0.32;;;;;;;-0.49;100.00;100723.78;5080453;27;96616;-27
2023/12/01 03:07:58;;;;;;;0.77;0.75;;;;;;;-0.43;100.00;100714.78;5099536;27;96807;-28
2023/12/01 03:10:24;;;;;;;1.08;1.02;;;;;;;-0.56;100.00;100715.94;5098499;27;99111;-28
2023/12/01 03:12:49;;;;;;;0.95;0.88;;;;;;;-0.52;100.00;100720.31;5098438;27;99407;-27
2023/12/01 03:15:19;;;;;;;2.33;1.88;;;;;;;-0.52;100.00;100713.19;5098085;27;96675;-28
2023/12/01 03:17:46;;;;;;;1.35;0.75;;;;;;;-0.67;100.00;100716.13;5099040;27;96485;-27
2023/12/01 03:20:11;;;;;;;2.63;1.42;;;;;;;-0.64;100.00;100716.09;5098268;27;97588;-27
2023/12/01 03:22:38;;;;;;;0.45;0.45;;;;;;;-0.63;100.00;100722.28;5098388;27;97878;-27
2023/12/01 03:25:09;;;;;;;1.10;0.95;;;;;;;-0.73;100.00;100722.44;5098639;27;96472;-27
2023/12/01 03:27:35;;;;;;;4.07;1.42;;;;;;;-0.74;100.00;100723.34;5079916;27;96745;-27
2023/12/01 03:30:00;;;;;;;2.45;1.35;;;;;;;-0.79;100.00;100711.00;5098146;27;99301;-28
2023/12/01 03:32:27;;;;;;;0.05;0.05;;;;;;;-0.64;100.00;100721.41;5098441;27;99718;-27
2023/12/01 03:34:52;;;;;;;1.52;0.93;;;;;;;-0.65;100.00;100720.50;5098341;27;96554;-27
2023/12/01 03:37:17;;;;;;;1.15;0.75;;;;;;;-0.59;100.00;100726.63;5098593;27;98290;-27
2023/12/01 03:39:43;;;;;;;1.15;1.05;;;;;;;-0.60;100.00;100715.09;5097412;27;99475;-27
2023/12/01 03:42:09;;;;;;;0.52;0.43;;;;;;;-0.61;100.00;100721.34;5097863;27;101461;-27
2023/12/01 03:44:34;;;;;;;5.35;0.47;;;;;;;-0.56;100.00;100729.25;5098096;27;96540;-27
2023/12/01 03:47:00;;;;;;;3.22;1.40;;;;;;;-0.54;100.00;100722.97;5097641;27;96930;-28
2023/12/01 03:49:25;;;;;;;1.00;0.98;;;;;;;-0.61;100.00;100736.44;5097924;27;99293;-27
2023/12/01 03:51:52;;;;;;;1.67;1.58;;;;;;;-0.59;100.00;100740.81;5097572;27;98866;-27
2023/12/01 03:54:18;;;;;;;0.98;0.68;;;;;;;-0.61;100.00;100739.97;5079591;27;96574;-27
2023/12/01 03:56:43;;;;;;;1.23;1.13;;;;;;;-0.63;100.00;100730.25;5114146;27;96973;-27
2023/12/01 03:59:09;;;;;;;4.97;1.80;;;;;;;-0.73;100.00;100740.19;5097931;27;97884;-27
2023/12/01 04:01:39;;;;;;;1.02;0.95;;;;;;;-0.71;100.00;100741.03;5079008;27;101393;-27
2023/12/01 04:04:05;;;;;;;0.35;0.35;;;;;;;-0.79;100.00;100740.25;5097585;27;96508;-28
2023/12/01 04:06:32;;;;;;;0.47;0.32;;;;;;;-0.70;100.00;100745.44;5079487;27;96851;-28
2023/12/01 04:09:00;;;;;;;0.00;0.00;;;;;;;-0.58;100.00;100757.66;5097629;27;99670;-27
2023/12/01 04:11:25;;;;;;;1.92;0.88;;;;;;;-0.69;100.00;100748.06;5078928;27;100997;-27
2023/12/01 04:13:50;;;;;;;0.65;0.65;;;;;;;-0.73;100.00;100743.69;5079118;27;96870;-27
2023/12/01 04:16:15;;;;;;;1.92;1.27;;;;;;;-0.74;100.00;100754.34;5097838;27;96947;-29
2023/12/01 04:18:45;;;;;;;0.43;0.43;;;;;;;-0.75;100.00;100764.13;5097728;27;98083;-27
2023/12/01 04:21:10;;;;;;;1.15;1.05;;;;;;;-0.77;100.00;100765.91;5097610;27;99267;-27
2023/12/01 04:23:35;;;;;;;2.33;1.55;;;;;;;-0.80;100.00;100762.44;5098095;27;96686;-27
2023/12/01 04:26:02;;;;;;;0.88;0.82;;;;;;;-0.89;100.00;100755.50;5097800;27;96854;-27
2023/12/01 04:28:27;;;;;;;3.25;2.33;;;;;;;-0.87;100.00;100759.00;5096927;27;97985;-27
2023/12/01 04:30:52;;;;;;;4.18;1.55;;;;;;;-0.83;100.00;100759.81;5097128;27;105362;-28
2023/12/01 04:33:18;;;;;;;2.47;1.80;;;;;;;-0.79;100.00;100782.81;5097359;27;96630;-27
2023/12/01 04:35:43;;;;;;;0.30;0.30;;;;;;;-0.77;100.00;100789.84;5078838;27;96959;-28
2023/12/01 04:38:09;;;;;;;0.95;0.75;;;;;;;-0.79;100.00;100782.81;5097181;27;101834;-26
2023/12/01 04:40:36;;;;;;;2.03;1.52;;;;;;;-0.79;100.00;100783.69;5096765;27;99467;-27
2023/12/01 04:43:03;;;;;;;0.95;0.75;;;;;;;-0.81;100.00;100787.25;5078682;27;96600;-27
2023/12/01 04:45:31;;;;;;;1.08;0.82;;;;;;;-0.73;100.00;100798.69;5113778;27;96589;-27
2023/12/01 04:47:57;;;;;;;1.73;1.13;;;;;;;-0.67;100.00;100803.88;5112863;27;100983;-27
2023/12/01 04:50:23;;;;;;;0.63;0.63;;;;;;;-0.68;100.00;100796.81;5096669;27;97833;-28
2023/12/01 04:52:54;;;;;;;2.35;1.85;;;;;;;-0.72;100.00;100808.41;5078093;27;97943;-27
2023/12/01 04:55:20;;;;;;;1.73;1.40;;;;;;;-0.77;100.00;100808.47;5078679;27;96875;-27
2023/12/01 04:57:47;;;;;;;0.82;0.68;;;;;;;-0.83;100.00;100807.69;5112658;27;101163;-27
2023/12/01 05:00:21;;;;;;;3.72;2.47;;;;;;;-0.85;100.00;100813.03;5111355;27;100877;-28
2023/12/01 05:02:47;;;;;;;0.80;0.75;;;;;;;-0.82;100.00;100812.97;5097408;27;96819;-27
2023/12/01 05:05:13;;;;;;;0.57;0.28;;;;;;;-0.80;100.00;100812.97;5078412;27;96863;-27
2023/12/01 05:07:38;;;;;;;1.50;1.17;;;;;;;-0.83;100.00;100810.34;5096357;27;99283;-27
2023/12/01 05:10:08;;;;;;;4.53;0.65;;;;;;;-0.76;100.00;100809.34;5097083;27;102396;-27
2023/12/01 05:12:34;;;;;;;0.13;0.13;;;;;;;-0.70;100.00;100810.13;5078316;27;96829;-27
2023/12/01 05:14:59;;;;;;;2.17;1.77;;;;;;;-0.69;100.00;100816.31;5078361;27;96977;-28
2023/12/01 05:17:25;;;;;;;3.47;2.40;;;;;;;-0.69;100.00;100811.91;5096055;27;97375;-27
2023/12/01 05:19:50;;;;;;;2.13;1.17;;;;;;;-0.68;100.00;100815.44;5096139;27;100136;-28
2023/12/01 05:22:15;;;;;;;3.05;1.98;;;;;;;-0.68;100.00;100816.31;5096425;27;97030;-27
2023/12/01 05:24:40;;;;;;;0.75;0.63;;;;;;;-0.66;100.00;100813.63;5096614;27;96916;-27
2023/12/01 05:27:08;;;;;;;0.57;0.57;;;;;;;-0.63;100.00;100824.22;5096545;27;97616;-27
2023/12/01 05:29:35;;;;;;;1.77;1.63;;;;;;;-0.67;100.00;100818.09;5096496;27;97969;-27
2023/12/01 05:32:01;;;;;;;0.65;0.65;;;;;;;-0.57;100.00;100832.09;5078059;27;96587;-28
2023/12/01 05:34:27;;;;;;;1.35;0.50;;;;;;;-0.59;100.00;100819.75;5078351;27;97093;-27
2023/12/01 05:36:52;;;;;;;0.47;0.47;;;;;;;-0.51;100.00;100818.69;5095892;27;99336;-27
2023/12/01 05:39:18;;;;;;;0.68;0.68;;;;;;;-0.51;100.00;100833.78;5096223;27;96634;-27
2023/12/01 05:41:43;;;;;;;1.38;1.27;;;;;;;-0.51;100.00;100831.13;5096227;27;96835;-27
2023/12/01 05:44:08;;;;;;;2.92;0.90;;;;;;;-0.53;100.00;100825.81;5096196;27;96845;-27
2023/12/01 05:46:34;;;;;;;0.20;0.20;;;;;;;-0.51;100.00;100825.81;5096310;27;98406;-27
2023/12/01 05:49:02;;;;;;;1.40;0.65;;;;;;;-0.47;100.00;100825.72;5095689;27;99103;-27
2023/12/01 05:51:29;;;;;;;1.65;1.40;;;;;;;-0.45;100.00;100815.94;5095928;27;96777;-28
2023/12/01 05:53:55;;;;;;;1.70;1.42;;;;;;;-0.38;100.00;100823.81;5077806;27;96909;-27
2023/12/01 05:56:20;;;;;;;0.93;0.90;;;;;;;-0.33;100.00;100829.94;5096134;27;97900;-27
2023/12/01 05:58:45;;;;;;;0.93;0.73;;;;;;;-0.29;100.00;100837.81;5096199;27;98679;-29
2023/12/01 06:01:11;;;;;;;1.27;1.17;;;;;;;-0.34;100.00;100828.19;5096362;27;96673;-27
2023/12/01 06:03:36;;;;;;;1.10;0.93;;;;;;;-0.27;100.00;100837.81;5096150;27;96867;-27
2023/12/01 06:06:02;;;;;;;0.43;0.43;;;;;;;-0.25;100.00;100833.34;5095353;27;97871;-27
2023/12/01 06:08:27;;;;;;;1.70;1.35;;;;;;;-0.22;100.00;100844.78;5095665;27;99626;-27
2023/12/01 06:10:52;;;;;;;0.52;0.47;;;;;;;-0.20;100.00;100833.25;5095846;27;96640;-27
2023/12/01 06:13:18;;;;;;;2.42;0.77;;;;;;;-0.21;100.00;100843.03;5096220;27;96824;-28
2023/12/01 06:15:43;;;;;;;1.70;1.10;;;;;;;-0.15;100.00;100855.34;5095588;27;98836;-27
2023/12/01 06:18:09;;;;;;;1.85;1.45;;;;;;;-0.15;100.00;100850.91;5077352;27;97799;-27
2023/12/01 06:20:34;;;;;;;0.75;0.75;;;;;;;-0.14;100.00;100847.34;5095921;27;96813;-28
2023/12/01 06:23:06;;;;;;;0.30;0.30;;;;;;;-0.12;100.00;100845.53;5096590;27;96759;-28
2023/12/01 06:25:34;;;;;;;0.68;0.55;;;;;;;-0.07;100.00;100856.97;5076886;27;101006;-28
2023/12/01 06:28:04;;;;;;;2.25;1.70;;;;;;;-0.04;100.00;100861.38;5076878;27;100983;-29
2023/12/01 06:30:34;;;;;;;0.77;0.77;;;;;;;-0.04;100.00;100864.03;5111328;27;96570;-28
2023/12/01 06:33:01;;;;;;;1.02;0.98;;;;;;;-0.10;100.00;100851.69;5111549;27;96780;-28
2023/12/01 06:35:26;;;;;;;2.88;0.82;;;;;;;-0.03;100.00;100869.31;5095721;27;97517;-28
2023/12/01 06:37:52;;;;;;;0.63;0.63;;;;;;;-0.08;100.00;100862.31;5076688;27;100966;-27
2023/12/01 06:40:20;;;;;;;1.83;1.70;;;;;;;-0.06;100.00;100866.72;5077207;27;96592;-27
2023/12/01 06:42:52;;;;;;;3.10;1.67;;;;;;;-0.10;100.00;100858.81;5095801;27;96834;-28
2023/12/01 06:45:19;;;;;;;1.20;1.08;;;;;;;-0.05;100.00;100867.59;5095556;27;97508;-28
2023/12/01 06:47:47;;;;;;;0.77;0.77;;;;;;;-0.06;100.00;100865.84;5111242;27;101258;-28
2023/12/01 06:50:16;;;;;;;1.35;0.80;;;;;;;-0.13;100.00;100857.06;5076664;27;96781;-27
2023/12/01 06:52:46;;;;;;;2.38;1.35;;;;;;;-0.15;100.00;100853.56;5095258;27;96822;-27
2023/12/01 06:55:12;;;;;;;0.65;0.63;;;;;;;-0.08;100.00;100868.53;5094777;27;99354;-28
2023/12/01 06:57:40;;;;;;;1.92;1.27;;;;;;;-0.02;100.00;100879.06;5110873;27;101173;-27
2023/12/01 07:00:29;;;;;;;0.28;0.28;;;;;;;0.02;100.00;100879.00;5076575;27;96658;-27
2023/12/01 07:02:59;;;;;;;3.47;1.55;;;;;;;0.02;100.00;100871.03;5076859;27;97004;-27
2023/12/01 07:05:25;;;;;;;0.52;0.52;;;;;;;-0.06;100.00;100865.84;5095012;27;98927;-28
2023/12/01 07:07:56;;;;;;;1.55;1.35;;;;;;;-0.09;100.00;100858.78;5076430;27;100728;-28
2023/12/01 07:10:21;;;;;;;0.55;0.52;;;;;;;-0.10;100.00;100859.69;5095644;27;96632;-28
2023/12/01 07:12:48;;;;;;;3.00;2.10;;;;;;;-0.05;100.00;100871.16;5095933;27;96754;-29
2023/12/01 07:15:20;;;;;;;1.20;1.02;;;;;;;0.01;100.00;100887.91;5095422;27;97416;-27
2023/12/01 07:17:48;;;;;;;1.15;0.68;;;;;;;0.02;100.00;100879.00;5110787;27;100894;-27
2023/12/01 07:20:14;;;;;;;0.82;0.70;;;;;;;0.04;100.00;100880.75;5110294;27;96709;-28
2023/12/01 07:22:43;;;;;;;2.22;1.27;;;;;;;0.08;100.00;100889.56;5096416;27;97017;-29
2023/12/01 07:25:10;;;;;;;1.10;0.90;;;;;;;0.10;100.00;100880.66;5098397;27;98224;-28
2023/12/01 07:27:39;;;;;;;0.90;0.65;;;;;;;0.10;100.00;100893.09;5114308;27;101353;-28
2023/12/01 07:30:06;;;;;;;3.65;1.75;;;;;;;0.05;100.00;100890.50;5114575;27;96617;-27
2023/12/01 07:32:31;;;;;;;2.03;1.35;;;;;;;0.08;100.00;100895.75;5114585;27;96824;-29
2023/12/01 07:34:56;;;;;;;3.38;1.65;;;;;;;0.10;100.00;100887.75;5097992;27;99530;-28
2023/12/01 07:37:22;;;;;;;1.58;1.48;;;;;;;0.13;100.00;100893.03;5079868;27;99330;-28
2023/12/01 07:39:47;;;;;;;0.68;0.68;;;;;;;0.15;100.00;100899.22;5098300;27;96761;-28
2023/12/01 07:42:12;;;;;;;1.25;0.68;;;;;;;0.16;100.00;100900.94;5098327;27;96867;-28
2023/12/01 07:44:38;;;;;;;13.98;1.55;;;;;;;0.15;100.00;100900.06;5097458;27;99678;-28
2023/12/01 07:47:07;;;;;;;0.70;0.70;;;;;;;0.17;100.00;100910.72;5097927;27;99636;-28
2023/12/01 07:49:32;;;;;;;0.75;0.50;;;;;;;0.09;100.00;100897.50;5097934;27;96677;-29
2023/12/01 07:51:58;;;;;;;1.20;1.13;;;;;;;0.10;100.00;100893.09;5098028;27;96795;-28
2023/12/01 07:54:23;;;;;;;2.20;1.50;;;;;;;0.16;100.00;100898.28;5098021;27;97967;-28
2023/12/01 07:56:49;;;;;;;0.82;0.82;;;;;;;0.17;100.00;100916.03;5098018;27;97779;-28
2023/12/01 07:59:14;;;;;;;0.93;0.85;;;;;;;0.14;100.00;100905.41;5098334;27;96802;-28
2023/12/01 08:01:40;;;;;;;0.73;0.57;;;;;;;0.19;100.00;100914.19;5098641;27;96804;-28
2023/12/01 08:04:05;;;;;;;1.33;1.23;;;;;;;0.18;100.00;100912.47;5079081;27;100986;-28
2023/12/01 08:06:31;;;;;;;13.77;1.55;;;;;;;0.15;100.00;100907.19;5097788;27;97787;-28
2023/12/01 08:08:56;;;;;;;0.93;0.88;;;;;;;0.21;100.00;100915.06;5096240;27;98468;-28
2023/12/01 08:11:22;;;;;;;1.08;0.80;;;;;;;0.18;100.00;100913.31;5098102;27;96859;-28
2023/12/01 08:13:49;;;;;;;1.73;1.33;;;;;;;0.25;100.00;100915.91;5097669;27;98009;-28
2023/12/01 08:16:15;;;;;;;1.63;1.17;;;;;;;0.21;100.00;100915.06;5078873;27;100912;-29
2023/12/01 08:18:40;;;;;;;2.10;1.23;;;;;;;0.20;100.00;100913.31;5097706;27;96705;-28
2023/12/01 08:21:06;;;;;;;3.97;1.70;;;;;;;0.28;100.00;100919.38;5097768;27;96827;-28
2023/12/01 08:23:31;;;;;;;2.28;1.55;;;;;;;0.32;100.00;100920.22;5078569;27;101307;-28
2023/12/01 08:25:57;;;;;;;1.90;1.50;;;;;;;0.34;100.00;100924.59;5098136;27;96525;-28
2023/12/01 08:28:22;;;;;;;1.73;0.73;;;;;;;0.36;100.00;100921.91;5097746;27;96599;-28
2023/12/01 08:30:48;;;;;;;2.28;2.00;;;;;;;0.31;100.00;100923.75;5097541;27;96838;-29
2023/12/01 08:33:13;;;;;;;3.25;1.55;;;;;;;0.31;100.00;100914.00;5096522;27;97915;-28
2023/12/01 08:35:38;;;;;;;1.70;0.77;;;;;;;0.35;100.00;100922.81;5078611;27;99202;-28
2023/12/01 08:38:04;;;;;;;4.75;1.77;;;;;;;0.34;100.00;100924.59;5097082;27;96683;-28
2023/12/01 08:40:29;;;;;;;1.33;1.23;;;;;;;0.38;100.00;100923.63;5097742;27;96770;-28
2023/12/01 08:42:54;;;;;;;2.53;1.30;;;;;;;0.38;100.00;100925.41;5096908;27;99446;-28
2023/12/01 08:45:20;;;;;;;0.55;0.55;;;;;;;0.40;100.00;100918.25;5097176;27;98282;-28
2023/12/01 08:47:46;;;;;;;1.35;0.80;;;;;;;0.40;100.00;100926.25;5097761;27;96710;-27
2023/12/01 08:50:11;;;;;;;1.15;1.05;;;;;;;0.43;100.00;100934.22;5097319;27;96909;-28
2023/12/01 08:52:38;;;;;;;1.80;1.42;;;;;;;0.39;100.00;100922.72;5096755;27;97926;-28
2023/12/01 08:55:05;;;;;;;2.28;1.30;;;;;;;0.42;100.00;100930.66;5061364;27;101023;-28
2023/12/01 08:57:30;;;;;;;0.52;0.52;;;;;;;0.45;100.00;100926.16;5078177;27;96910;-28
2023/12/01 08:59:56;;;;;;;1.80;1.00;;;;;;;0.50;100.00;100938.53;5078649;27;96832;-29
2023/12/01 09:02:21;;;;;;;0.88;0.80;;;;;;;0.50;100.00;100935.84;5096829;27;97769;-28
2023/12/01 09:04:46;;;;;;;0.82;0.77;;;;;;;0.56;100.00;100943.72;5097004;27;97781;-29
2023/12/01 09:07:12;;;;;;;2.30;1.63;;;;;;;0.54;100.00;100948.19;5096987;27;97414;-28
2023/12/01 09:09:37;;;;;;;2.88;1.92;;;;;;;0.58;100.00;100946.38;5097094;27;96499;-29
2023/12/01 09:12:03;;;;;;;3.50;1.30;;;;;;;0.57;100.00;100945.50;5096746;27;97880;-28
2023/12/01 09:14:29;;;;;;;1.10;0.88;;;;;;;0.61;100.00;100955.16;5096847;27;99422;-28
2023/12/01 09:16:54;;;;;;;0.38;0.38;;;;;;;0.56;100.00;100950.84;5096790;27;96730;-28
2023/12/01 09:19:20;;;;;;;3.80;1.95;;;;;;;0.51;100.00;100944.72;5096477;27;96869;-30
2023/12/01 09:21:46;;;;;;;1.85;1.30;;;;;;;0.58;100.00;100954.38;5096071;27;97887;-28
2023/12/01 09:24:11;;;;;;;4.28;0.85;;;;;;;0.60;100.00;100957.88;5096335;27;99902;-28
2023/12/01 09:26:36;;;;;;;1.55;1.35;;;;;;;0.67;100.00;100958.63;5096952;27;96603;-28
2023/12/01 09:29:01;;;;;;;1.45;1.27;;;;;;;0.65;100.00;100964.00;5096974;27;96840;-28
2023/12/01 09:31:27;;;;;;;6.00;2.28;;;;;;;0.73;100.00;100970.06;5096431;27;97940;-27
2023/12/01 09:33:52;;;;;;;0.98;0.75;;;;;;;0.79;100.00;100980.59;5096276;27;102652;-28
2023/12/01 09:36:17;;;;;;;0.95;0.60;;;;;;;0.77;100.00;100969.09;5096072;27;96715;-29
2023/12/01 09:38:44;;;;;;;3.05;1.98;;;;;;;0.88;100.00;100973.31;5097198;27;96818;-28
2023/12/01 09:41:10;;;;;;;7.95;1.92;;;;;;;0.97;100.00;100966.03;5077483;27;101687;-28
2023/12/01 09:43:36;;;;;;;1.45;1.25;;;;;;;1.05;100.00;100965.88;5076694;27;101152;-30
2023/12/01 09:46:02;;;;;;;0.95;0.77;;;;;;;1.08;100.00;100968.47;5095036;27;96590;-30
2023/12/01 09:48:33;;;;;;;1.65;0.90;;;;;;;1.15;100.00;100975.44;5077732;27;96857;-28
2023/12/01 09:50:59;;;;;;;2.80;1.30;;;;;;;1.19;100.00;100974.50;5095408;27;97802;-28
2023/12/01 09:53:24;;;;;;;1.55;1.08;;;;;;;1.16;99.97;100974.53;5096317;27;97318;-28
2023/12/01 09:55:50;;;;;;;1.02;0.93;;;;;;;1.22;100.00;100989.53;5096110;27;96656;-30
2023/12/01 09:58:16;;;;;;;1.55;1.45;;;;;;;1.13;97.73;100984.41;5096068;27;96826;-28
2023/12/01 10:00:41;;;;;;;2.05;1.65;;;;;;;1.11;97.29;100979.09;5095810;27;99262;-28
2023/12/01 10:03:06;;;;;;;2.00;1.60;;;;;;;1.13;98.64;100974.59;5096494;27;97893;-28
2023/12/01 10:05:35;;;;;;;2.17;1.95;;;;;;;1.17;97.33;100975.41;5095869;27;96706;-29
2023/12/01 10:08:00;;;;;;;7.55;3.20;;;;;;;1.24;97.06;100980.59;5077526;27;96851;-28
2023/12/01 10:10:26;;;;;;;5.60;2.42;;;;;;;1.23;96.56;100983.28;5095496;27;97922;-27
2023/12/01 10:13:07;;;;;;;1.88;1.15;;;;;;;1.20;96.90;100981.56;5077116;27;101063;-28
2023/12/01 10:15:37;;;;;;;1.13;0.85;;;;;;;1.13;96.83;100971.94;5096386;27;96709;-29
2023/12/01 10:18:16;;;;;;;7.28;2.08;;;;;;;1.16;96.97;100995.00;5095692;27;96634;-28
2023/12/01 10:20:55;;;;;;;1.80;1.48;;;;;;;1.08;96.74;100981.81;5095425;27;99047;-28
2023/12/01 10:23:20;;;;;;;2.67;1.55;;;;;;;1.12;97.23;100978.19;5077132;27;100720;-28
2023/12/01 10:25:50;;;;;;;0.95;0.75;;;;;;;1.13;96.22;100977.28;5096219;27;96623;-28
2023/12/01 10:28:18;;;;;;;2.00;1.60;;;;;;;1.30;96.72;100990.25;5077591;27;96849;-28
2023/12/01 10:30:54;;;;;;;3.10;1.67;;;;;;;1.32;95.89;100987.56;5095522;27;97554;-27
2023/12/01 10:33:21;;;;;;;1.83;1.33;;;;;;;1.52;95.42;100981.78;5076861;27;101553;-28
2023/12/01 10:36:03;;;;;;;1.65;0.63;;;;;;;1.82;94.29;100994.44;5076729;27;96738;-28
2023/12/01 10:38:29;;;;;;;1.35;0.93;;;;;;;1.95;91.92;100987.00;5077058;27;96827;-28
2023/12/01 10:40:55;;;;;;;1.02;0.93;;;;;;;1.94;90.19;100979.06;5094989;27;99759;-28
2023/12/01 10:43:22;;;;;;;2.45;1.02;;;;;;;2.08;89.81;100983.13;5076827;27;100775;-29
2023/12/01 10:45:50;;;;;;;3.60;1.73;;;;;;;2.16;89.59;100980.28;5077189;27;96701;-28
2023/12/01 10:48:21;;;;;;;1.38;0.93;;;;;;;2.18;88.08;100982.91;5077100;27;96829;-28
2023/12/01 10:50:47;;;;;;;3.63;2.28;;;;;;;2.24;89.59;100972.06;5094635;27;99297;-28
2023/12/01 10:53:16;;;;;;;1.65;1.35;;;;;;;2.42;90.03;100970.72;5076981;27;100889;-28
2023/12/01 10:55:54;;;;;;;2.42;1.50;;;;;;;2.40;88.87;100956.50;5076870;27;96599;-28
2023/12/01 10:58:25;;;;;;;3.47;2.10;;;;;;;2.60;88.90;100980.94;5080338;27;96692;-28
2023/12/01 11:00:52;;;;;;;2.15;1.98;;;;;;;2.57;89.65;100970.31;5079743;27;101268;-28
2023/12/01 11:03:23;;;;;;;3.63;1.75;;;;;;;2.56;89.48;100976.59;5080145;27;101353;-29
2023/12/01 11:05:56;;;;;;;3.75;1.20;;;;;;;2.57;90.37;100974.78;5080316;27;96602;-28
2023/12/01 11:08:28;;;;;;;2.50;1.88;;;;;;;2.42;89.17;100970.72;5080343;27;96702;-28
2023/12/01 11:11:07;;;;;;;1.23;0.82;;;;;;;2.30;90.25;100972.78;5080052;27;100738;-28
2023/12/01 11:13:49;;;;;;;5.25;2.00;;;;;;;2.23;90.86;100970.31;5079988;27;101342;-28
2023/12/01 11:16:14;;;;;;;5.68;3.25;;;;;;;2.19;91.37;100972.16;5098986;27;96574;-29
2023/12/01 11:18:44;;;;;;;2.03;1.58;;;;;;;2.24;91.53;100972.06;5080430;27;96918;-28